Terminal Aerodrome Forecast
Issued by NWS

Home | Current Version | Previous Version | Text Only | Print | Product List | Glossary On
Versions: 1 2 3 4 5 6 7 8 9 10 11 12 13 14 15 16 17
000
FTUS45 KSLC 082350
TAF36U
TAF
K36U 082350Z 0900/0924 VRB05KT 3SM -SN BR BKN030 OVC045
     FM090800 VRB05KT 1/2SM SN FG OVC008
     FM091400 VRB05KT 2SM -SN BR BKN010 OVC020
     FM091900 VRB05KT 5SM -SNRA BR BKN020 OVC030=

USA.gov is the U.S. government's official web portal to all federal, state and local government web resources and services.